createdAt,value
2018-10-06T00:01:36.989Z,8.33
2018-10-06T00:04:05.043Z,8.37
2018-10-06T00:06:33.081Z,8.07
2018-10-06T00:09:01.181Z,8.13
2018-10-06T00:11:29.243Z,8.17
2018-10-06T00:13:57.334Z,7.97
2018-10-06T00:16:25.377Z,8.07
2018-10-06T00:18:53.440Z,7.47
2018-10-06T00:21:21.618Z,7.87
2018-10-06T00:23:49.677Z,7.40
2018-10-06T00:26:17.886Z,8.17
2018-10-06T00:28:45.954Z,8.53
2018-10-06T00:31:14.020Z,8.07
2018-10-06T00:33:42.068Z,7.73
2018-10-06T00:36:10.139Z,8.17
2018-10-06T00:38:38.185Z,8.40
2018-10-06T00:41:07.201Z,8.87
2018-10-06T00:43:35.225Z,9.27
2018-10-06T00:46:03.325Z,8.63
2018-10-06T00:48:31.402Z,8.07
2018-10-06T00:50:59.453Z,9.10
2018-10-06T00:53:27.489Z,8.83
2018-10-06T00:55:55.555Z,9.20
2018-10-06T00:58:23.598Z,9.27
2018-10-06T01:00:51.740Z,8.47
2018-10-06T01:03:19.874Z,8.73
2018-10-06T01:05:47.972Z,8.43
2018-10-06T01:08:16.056Z,9.20
2018-10-06T01:10:44.165Z,8.43
2018-10-06T01:13:12.226Z,8.23
2018-10-06T01:15:40.282Z,7.80
2018-10-06T01:18:08.343Z,8.70
2018-10-06T01:20:36.425Z,8.23
2018-10-06T01:23:04.531Z,8.87
2018-10-06T01:25:32.636Z,8.03
2018-10-06T01:28:00.686Z,8.20
2018-10-06T01:30:28.709Z,8.30
2018-10-06T01:32:56.765Z,8.33
2018-10-06T01:35:24.850Z,8.50
2018-10-06T01:37:59.029Z,7.57
2018-10-06T01:40:27.102Z,8.30
2018-10-06T01:42:55.136Z,8.10
2018-10-06T01:45:23.187Z,8.60
2018-10-06T01:47:51.213Z,8.73
2018-10-06T01:50:25.868Z,8.53
2018-10-06T01:52:53.917Z,8.47
2018-10-06T01:55:22.031Z,8.10
2018-10-06T01:57:50.093Z,8.20
2018-10-06T02:00:18.159Z,7.77
2018-10-06T02:02:46.269Z,8.20
2018-10-06T02:05:14.318Z,9.07
2018-10-06T02:07:42.354Z,8.13
2018-10-06T02:10:10.406Z,8.57
2018-10-06T02:12:38.481Z,8.50
2018-10-06T02:15:06.534Z,8.73
2018-10-06T02:17:34.565Z,8.30
2018-10-06T02:20:02.627Z,8.63
2018-10-06T02:22:30.691Z,8.27
2018-10-06T02:24:58.736Z,8.43
2018-10-06T02:27:26.793Z,8.30
2018-10-06T02:29:54.853Z,8.27
2018-10-06T02:32:22.915Z,8.83
2018-10-06T02:34:50.963Z,8.47
2018-10-06T02:37:18.985Z,8.33
2018-10-06T02:39:47.059Z,8.27
2018-10-06T02:42:15.122Z,8.60
2018-10-06T02:44:43.208Z,8.40
2018-10-06T02:47:11.270Z,8.93
2018-10-06T02:49:39.349Z,8.23
2018-10-06T02:52:07.370Z,9.17
2018-10-06T02:54:35.463Z,8.17
2018-10-06T02:57:03.517Z,8.37
2018-10-06T02:59:31.588Z,9.17
2018-10-06T03:01:59.657Z,8.17
2018-10-06T03:04:27.718Z,8.70
2018-10-06T03:06:55.769Z,8.37
2018-10-06T03:09:23.878Z,8.80
2018-10-06T03:11:51.978Z,8.47
2018-10-06T03:14:20.024Z,8.57
2018-10-06T03:16:48.073Z,8.60
2018-10-06T03:19:16.123Z,9.40
2018-10-06T03:21:44.190Z,9.27
2018-10-06T03:24:12.286Z,9.00
2018-10-06T03:26:40.334Z,8.93
2018-10-06T03:29:08.374Z,8.97
2018-10-06T03:31:36.438Z,9.07
2018-10-06T03:34:04.503Z,9.67
2018-10-06T03:36:32.588Z,8.90
2018-10-06T03:39:00.601Z,9.40
2018-10-06T03:41:28.666Z,9.23
2018-10-06T03:43:56.722Z,9.27
2018-10-06T03:46:24.757Z,8.93
2018-10-06T03:48:52.859Z,9.27
2018-10-06T03:51:20.923Z,9.17
2018-10-06T03:53:49.024Z,9.90
2018-10-06T03:56:17.125Z,9.70
2018-10-06T03:58:45.213Z,9.40
2018-10-06T04:01:13.254Z,9.20
2018-10-06T04:03:41.319Z,8.93
2018-10-06T04:06:09.379Z,9.47
2018-10-06T04:08:37.462Z,8.67
2018-10-06T04:11:05.707Z,9.13
2018-10-06T04:13:33.815Z,8.97
2018-10-06T04:16:01.883Z,9.17
2018-10-06T04:18:29.931Z,8.63
2018-10-06T04:20:57.977Z,9.40
2018-10-06T04:23:26.008Z,8.97
2018-10-06T04:25:54.069Z,9.53
2018-10-06T04:28:22.159Z,8.77
2018-10-06T04:30:50.131Z,8.77
2018-10-06T04:33:18.222Z,8.13
2018-10-06T04:35:46.290Z,9.57
2018-10-06T04:38:14.396Z,9.47
2018-10-06T04:40:42.479Z,8.80
2018-10-06T04:43:11.162Z,8.77
2018-10-06T04:45:39.246Z,9.80
2018-10-06T04:48:07.413Z,9.60
2018-10-06T04:50:35.458Z,9.50
2018-10-06T04:53:03.534Z,9.33
2018-10-06T04:55:31.602Z,9.27
2018-10-06T04:57:59.683Z,9.20
2018-10-06T05:00:27.739Z,9.70
2018-10-06T05:02:55.810Z,10.23
2018-10-06T05:05:23.882Z,9.13
2018-10-06T05:07:51.959Z,9.20
2018-10-06T05:10:20.062Z,9.53
2018-10-06T05:12:48.110Z,9.37
2018-10-06T05:15:16.191Z,9.80
2018-10-06T05:17:44.363Z,10.17
2018-10-06T05:20:12.464Z,9.77
2018-10-06T05:22:40.513Z,8.80
2018-10-06T05:25:08.561Z,9.73
2018-10-06T05:27:36.660Z,9.90
2018-10-06T05:30:04.991Z,10.17
2018-10-06T05:32:33.071Z,9.80
2018-10-06T05:35:01.133Z,9.30
2018-10-06T05:37:29.223Z,9.93
2018-10-06T05:39:57.255Z,9.53
2018-10-06T05:42:25.294Z,9.70
2018-10-06T05:44:53.338Z,9.60
2018-10-06T05:47:21.408Z,10.00
2018-10-06T05:49:49.469Z,10.07
2018-10-06T05:52:17.570Z,10.50
2018-10-06T05:54:45.641Z,9.73
2018-10-06T05:57:13.678Z,10.13
2018-10-06T05:59:41.768Z,9.63
2018-10-06T06:02:09.797Z,9.70
2018-10-06T06:04:37.813Z,9.73
2018-10-06T06:07:05.854Z,9.67
2018-10-06T06:09:33.903Z,10.00
2018-10-06T06:12:02.007Z,9.43
2018-10-06T06:14:30.108Z,9.07
2018-10-06T06:16:58.245Z,9.43
2018-10-06T06:19:26.296Z,9.37
2018-10-06T06:21:54.318Z,10.23
2018-10-06T06:24:22.470Z,9.90
2018-10-06T06:26:50.573Z,9.70
2018-10-06T06:29:25.157Z,10.17
2018-10-06T06:31:53.309Z,10.40
2018-10-06T06:34:21.501Z,9.70
2018-10-06T06:36:49.616Z,9.77
2018-10-06T06:39:17.798Z,9.70
2018-10-06T06:41:45.916Z,10.40
2018-10-06T06:44:14.142Z,9.77
2018-10-06T06:46:42.246Z,9.47
2018-10-06T06:49:10.370Z,8.90
2018-10-06T06:51:38.489Z,9.37
2018-10-06T06:54:06.537Z,9.50
2018-10-06T06:56:34.628Z,9.43
2018-10-06T06:59:02.701Z,8.67
2018-10-06T07:01:30.802Z,8.90
2018-10-06T07:03:58.857Z,9.57
2018-10-06T07:06:26.935Z,9.10
2018-10-06T07:08:55.008Z,9.47
2018-10-06T07:11:23.075Z,9.13
2018-10-06T07:13:51.166Z,9.20
2018-10-06T07:16:19.186Z,8.90
2018-10-06T07:18:47.327Z,8.23
2018-10-06T07:21:15.373Z,9.23
2018-10-06T07:23:43.390Z,8.73
2018-10-06T07:26:11.450Z,9.23
2018-10-06T07:28:39.625Z,9.50
2018-10-06T07:31:07.670Z,9.20
2018-10-06T07:33:35.734Z,9.80
2018-10-06T07:36:03.827Z,9.23
2018-10-06T07:38:31.966Z,8.50
2018-10-06T07:41:00.046Z,8.50
2018-10-06T07:43:28.157Z,7.63
2018-10-06T07:45:56.287Z,8.30
2018-10-06T07:48:24.414Z,8.77
2018-10-06T07:50:52.500Z,9.00
2018-10-06T07:53:20.603Z,8.60
2018-10-06T07:55:48.657Z,7.97
2018-10-06T07:58:16.835Z,8.73
2018-10-06T08:00:44.905Z,8.40
2018-10-06T08:03:12.998Z,8.60
2018-10-06T08:05:41.047Z,8.43
2018-10-06T08:08:09.121Z,8.37
2018-10-06T08:10:37.283Z,8.20
2018-10-06T08:13:05.586Z,7.40
2018-10-06T08:15:33.650Z,7.60
2018-10-06T08:18:01.713Z,7.50
2018-10-06T08:20:29.765Z,7.53
2018-10-06T08:22:57.867Z,7.33
2018-10-06T08:25:27.943Z,7.33
2018-10-06T08:27:55.979Z,7.70
2018-10-06T08:30:26.081Z,7.40
2018-10-06T08:32:54.134Z,7.23
2018-10-06T08:35:22.219Z,7.30
2018-10-06T08:40:28.823Z,7.23
2018-10-06T08:42:56.918Z,7.00
2018-10-06T08:45:24.979Z,6.83
2018-10-06T08:47:53.082Z,7.10
2018-10-06T08:50:21.314Z,6.07
2018-10-06T08:52:49.515Z,6.57
2018-10-06T08:55:17.914Z,6.03
2018-10-06T08:57:47.812Z,6.60
2018-10-06T09:00:16.074Z,6.23
2018-10-06T09:02:44.190Z,7.77
2018-10-06T09:05:12.236Z,6.70
2018-10-06T09:07:40.297Z,6.83
2018-10-06T09:10:09.265Z,6.77
2018-10-06T09:12:37.618Z,6.60
2018-10-06T09:15:06.436Z,6.20
2018-10-06T09:17:34.809Z,6.30
2018-10-06T09:20:17.474Z,6.53
2018-10-06T09:22:45.866Z,6.20
2018-10-06T09:25:28.777Z,6.37
2018-10-06T09:27:58.265Z,6.70
2018-10-06T09:30:26.599Z,6.33
2018-10-06T09:32:54.925Z,6.00
2018-10-06T09:35:23.292Z,6.07
2018-10-06T09:37:51.706Z,8.33
2018-10-06T09:40:20.052Z,6.80
2018-10-06T09:42:48.486Z,6.40
2018-10-06T09:45:16.666Z,6.30
2018-10-06T09:47:45.035Z,6.57
2018-10-06T09:50:13.418Z,6.57
2018-10-06T09:52:42.327Z,6.40
2018-10-06T09:55:10.663Z,6.30
2018-10-06T09:57:38.941Z,6.43
2018-10-06T10:00:07.685Z,6.27
2018-10-06T10:02:41.550Z,5.63
2018-10-06T10:05:15.354Z,5.60
2018-10-06T10:07:43.967Z,6.17
2018-10-06T10:10:12.337Z,5.80
2018-10-06T10:12:40.755Z,6.13
2018-10-06T10:15:09.038Z,5.67
2018-10-06T10:17:37.543Z,6.17
2018-10-06T10:20:05.541Z,5.97
2018-10-06T10:22:33.626Z,5.73
2018-10-06T10:25:01.674Z,6.20
2018-10-06T10:27:29.738Z,5.63
2018-10-06T10:29:57.825Z,6.13
2018-10-06T10:32:25.890Z,5.83
2018-10-06T10:34:54.015Z,6.03
2018-10-06T10:37:22.079Z,5.73
2018-10-06T10:39:50.281Z,6.40
2018-10-06T10:42:18.352Z,6.03
2018-10-06T10:44:46.454Z,5.80
2018-10-06T10:47:14.769Z,6.03
2018-10-06T10:49:42.853Z,6.47
2018-10-06T10:52:10.989Z,6.50
2018-10-06T10:54:39.107Z,6.33
2018-10-06T10:57:07.093Z,6.13
2018-10-06T10:59:35.245Z,5.70
2018-10-06T11:02:03.298Z,5.67
2018-10-06T11:04:31.327Z,6.07
2018-10-06T11:06:59.406Z,5.63
2018-10-06T11:09:27.506Z,5.93
2018-10-06T11:11:55.565Z,5.30
2018-10-06T11:14:23.674Z,5.90
2018-10-06T11:16:51.718Z,5.13
2018-10-06T11:19:19.798Z,5.90
2018-10-06T11:21:47.840Z,5.70
2018-10-06T11:24:15.897Z,5.97
2018-10-06T11:26:43.958Z,7.10
2018-10-06T11:29:12.080Z,5.70
2018-10-06T11:31:40.144Z,4.83
2018-10-06T11:34:08.222Z,5.43
2018-10-06T11:36:36.271Z,5.00
2018-10-06T11:39:05.501Z,5.23
2018-10-06T11:41:33.534Z,5.50
2018-10-06T11:44:01.644Z,5.40
2018-10-06T11:46:29.694Z,5.70
2018-10-06T11:48:57.780Z,5.20
2018-10-06T11:51:25.889Z,5.20
2018-10-06T11:53:53.929Z,5.50
2018-10-06T11:56:22.044Z,5.63
2018-10-06T11:58:50.104Z,4.83
2018-10-06T12:01:18.199Z,5.20
2018-10-06T12:03:46.279Z,4.77
2018-10-06T12:06:14.358Z,5.60
2018-10-06T12:08:42.449Z,5.20
2018-10-06T12:11:10.474Z,5.00
2018-10-06T12:13:38.554Z,5.50
2018-10-06T12:16:06.764Z,5.47
2018-10-06T12:18:35.350Z,5.80
2018-10-06T12:21:03.409Z,5.63
2018-10-06T12:23:31.472Z,5.60
2018-10-06T12:25:59.589Z,5.50
2018-10-06T12:28:27.708Z,5.13
2018-10-06T12:30:55.781Z,4.80
2018-10-06T12:33:23.898Z,7.07
2018-10-06T12:35:51.978Z,5.97
2018-10-06T12:38:20.039Z,6.67
2018-10-06T12:40:48.223Z,5.00
2018-10-06T12:43:16.342Z,6.23
2018-10-06T12:45:44.374Z,5.10
2018-10-06T12:48:12.443Z,5.90
2018-10-06T12:50:40.544Z,5.27
2018-10-06T12:53:08.643Z,4.77
2018-10-06T12:55:36.757Z,4.23
2018-10-06T12:58:05.126Z,5.87
2018-10-06T13:00:33.551Z,4.37
2018-10-06T13:03:01.928Z,4.53
2018-10-06T13:05:30.411Z,4.23
2018-10-06T13:07:58.907Z,4.40
2018-10-06T13:10:27.226Z,4.67
2018-10-06T13:12:56.378Z,4.10
2018-10-06T13:15:24.664Z,4.07
2018-10-06T13:17:52.950Z,4.53
2018-10-06T13:20:21.278Z,4.07
2018-10-06T13:22:49.647Z,4.33
2018-10-06T13:25:18.064Z,3.80
2018-10-06T13:27:46.447Z,3.73
2018-10-06T13:30:21.513Z,4.20
2018-10-06T13:32:50.437Z,4.10
2018-10-06T13:35:18.870Z,3.83
2018-10-06T13:37:47.204Z,3.73
2018-10-06T13:40:15.669Z,3.77
2018-10-06T13:42:43.974Z,3.27
2018-10-06T13:45:12.435Z,3.80
2018-10-06T13:47:40.823Z,4.60
2018-10-06T13:50:09.222Z,4.03
2018-10-06T13:52:37.559Z,4.43
2018-10-06T13:55:05.848Z,3.83
2018-10-06T13:57:34.228Z,3.60
2018-10-06T14:00:02.499Z,3.17
2018-10-06T14:02:30.869Z,4.30
2018-10-06T14:04:59.170Z,4.53
2018-10-06T14:07:27.538Z,5.00
2018-10-06T14:09:56.195Z,3.60
2018-10-06T14:12:24.461Z,3.80
2018-10-06T14:14:52.846Z,3.20
2018-10-06T14:17:21.252Z,4.50
2018-10-06T14:19:49.597Z,3.97
2018-10-06T14:22:18.414Z,3.60
2018-10-06T14:24:46.845Z,3.43
2018-10-06T14:27:15.266Z,3.90
2018-10-06T14:29:43.368Z,3.90
2018-10-06T14:32:11.506Z,3.20
2018-10-06T14:34:39.589Z,3.10
2018-10-06T14:37:07.715Z,3.30
2018-10-06T14:39:36.092Z,3.43
2018-10-06T14:42:04.445Z,3.47
2018-10-06T14:44:32.806Z,3.90
2018-10-06T14:47:01.178Z,3.27
2018-10-06T14:49:29.575Z,3.20
2018-10-06T14:51:57.984Z,3.60
2018-10-06T14:54:26.282Z,3.50
2018-10-06T14:56:54.758Z,3.80
2018-10-06T14:59:23.346Z,4.63
2018-10-06T15:01:52.778Z,4.33
2018-10-06T15:04:21.321Z,3.60
2018-10-06T15:06:49.407Z,4.20
2018-10-06T15:09:17.464Z,4.10
2018-10-06T15:11:45.565Z,3.50
2018-10-06T15:14:13.590Z,3.67
2018-10-06T15:16:41.621Z,3.53
2018-10-06T15:19:09.662Z,3.70
2018-10-06T15:21:37.705Z,3.57
2018-10-06T15:24:05.805Z,4.17
2018-10-06T15:26:33.903Z,6.20
2018-10-06T15:29:02.012Z,4.80
2018-10-06T15:31:30.113Z,7.33
2018-10-06T15:33:58.205Z,7.87
2018-10-06T15:36:26.266Z,7.40
2018-10-06T15:38:54.391Z,7.90
2018-10-06T15:41:22.471Z,6.30
2018-10-06T15:43:50.522Z,5.77
2018-10-06T15:46:18.554Z,6.00
2018-10-06T15:48:46.648Z,5.80
2018-10-06T15:51:14.703Z,5.37
2018-10-06T15:53:42.835Z,6.13
2018-10-06T15:56:10.927Z,6.73
2018-10-06T15:58:39.026Z,6.10
2018-10-06T16:01:07.134Z,6.30
2018-10-06T16:03:35.223Z,7.10
2018-10-06T16:06:03.384Z,7.40
2018-10-06T16:08:32.042Z,7.67
2018-10-06T16:11:00.455Z,8.03
2018-10-06T16:13:28.566Z,8.23
2018-10-06T16:15:56.747Z,8.57
2018-10-06T16:18:24.843Z,9.13
2018-10-06T16:20:53.000Z,10.07
2018-10-06T16:23:21.125Z,11.53
2018-10-06T16:25:49.294Z,14.17
2018-10-06T16:28:17.422Z,14.63
2018-10-06T16:30:45.512Z,16.07
2018-10-06T16:33:13.614Z,12.27
2018-10-06T16:35:41.709Z,11.70
2018-10-06T16:38:09.767Z,10.37
2018-10-06T16:40:37.893Z,10.03
2018-10-06T16:43:06.514Z,10.77
2018-10-06T16:45:34.558Z,9.80
2018-10-06T16:48:02.637Z,10.10
2018-10-06T16:50:30.791Z,10.37
2018-10-06T16:52:58.847Z,13.10
2018-10-06T16:55:26.959Z,12.43
2018-10-06T16:57:55.023Z,16.70
2018-10-06T17:00:23.173Z,17.40
2018-10-06T17:02:51.243Z,18.50
2018-10-06T17:05:19.356Z,16.43
2018-10-06T17:07:47.448Z,15.97
2018-10-06T17:10:15.536Z,14.37
2018-10-06T17:12:43.681Z,11.73
2018-10-06T17:15:11.788Z,12.50
2018-10-06T17:17:39.833Z,11.73
2018-10-06T17:20:07.918Z,10.70
2018-10-06T17:22:36.101Z,9.93
2018-10-06T17:25:04.210Z,8.30
2018-10-06T17:27:32.273Z,8.30
2018-10-06T17:30:00.354Z,8.70
2018-10-06T17:32:28.514Z,10.77
2018-10-06T17:34:56.569Z,10.87
2018-10-06T17:37:24.614Z,11.57
2018-10-06T17:39:52.707Z,12.13
2018-10-06T17:42:20.820Z,11.00
2018-10-06T17:44:48.912Z,9.70
2018-10-06T17:47:16.976Z,9.30
2018-10-06T17:49:45.064Z,9.00
2018-10-06T17:52:13.114Z,9.57
2018-10-06T17:54:41.235Z,10.20
2018-10-06T17:57:09.403Z,9.67
2018-10-06T17:59:37.485Z,11.10
2018-10-06T18:02:05.658Z,11.03
2018-10-06T18:04:33.693Z,10.63
2018-10-06T18:07:01.798Z,10.10
2018-10-06T18:09:29.917Z,11.10
2018-10-06T18:11:58.055Z,9.63
2018-10-06T18:14:26.266Z,11.40
2018-10-06T18:16:54.342Z,11.30
2018-10-06T18:19:22.570Z,11.40
2018-10-06T18:21:50.643Z,11.40
2018-10-06T18:24:18.711Z,11.00
2018-10-06T18:26:46.794Z,10.97
2018-10-06T18:29:14.932Z,11.47
2018-10-06T18:31:43.030Z,12.43
2018-10-06T18:34:11.116Z,11.60
2018-10-06T18:36:39.208Z,11.07
2018-10-06T18:39:07.830Z,10.30
2018-10-06T18:41:36.138Z,13.73
2018-10-06T18:44:04.200Z,12.10
2018-10-06T18:46:33.022Z,11.77
2018-10-06T18:49:01.187Z,11.07
2018-10-06T18:51:29.301Z,11.77
2018-10-06T18:53:57.381Z,13.43
2018-10-06T18:56:25.806Z,12.77
2018-10-06T18:58:53.907Z,12.63
2018-10-06T19:01:22.113Z,12.40
2018-10-06T19:03:50.347Z,12.23
2018-10-06T19:06:18.366Z,11.30
2018-10-06T19:08:46.489Z,17.67
2018-10-06T19:11:14.590Z,18.70
2018-10-06T19:13:42.713Z,14.60
2018-10-06T19:16:10.862Z,14.73
2018-10-06T19:18:38.945Z,14.97
2018-10-06T19:21:07.023Z,15.70
2018-10-06T19:23:35.171Z,14.63
2018-10-06T19:26:03.245Z,14.10
2018-10-06T19:28:31.305Z,14.33
2018-10-06T19:30:59.411Z,13.30
2018-10-06T19:33:27.530Z,11.40
2018-10-06T19:35:55.697Z,12.27
2018-10-06T19:38:23.890Z,11.83
2018-10-06T19:40:51.980Z,11.60
2018-10-06T19:43:20.034Z,12.87
2018-10-06T19:45:48.174Z,10.17
2018-10-06T19:48:16.258Z,11.83
2018-10-06T19:50:44.416Z,10.73
2018-10-06T19:53:13.092Z,10.07
2018-10-06T19:55:41.391Z,10.93
2018-10-06T19:58:09.573Z,10.73
2018-10-06T20:00:37.620Z,10.77
2018-10-06T20:03:05.982Z,10.47
2018-10-06T20:05:34.050Z,9.77
2018-10-06T20:08:02.152Z,9.20
2018-10-06T20:10:30.206Z,9.67
2018-10-06T20:12:58.919Z,9.20
2018-10-06T20:15:27.014Z,10.33
2018-10-06T20:17:55.131Z,10.43
2018-10-06T20:20:23.436Z,10.13
2018-10-06T20:22:52.336Z,9.87
2018-10-06T20:25:20.494Z,10.87
2018-10-06T20:27:50.621Z,10.83
2018-10-06T20:30:18.721Z,11.17
2018-10-06T20:32:46.939Z,10.47
2018-10-06T20:35:14.947Z,9.63
2018-10-06T20:37:43.309Z,11.90
2018-10-06T20:40:11.392Z,10.70
2018-10-06T20:42:39.448Z,10.87
2018-10-06T20:45:07.485Z,10.87
2018-10-06T20:47:35.510Z,9.90
2018-10-06T20:50:03.638Z,9.97
2018-10-06T20:52:31.687Z,10.77
2018-10-06T20:54:59.760Z,11.23
2018-10-06T20:57:27.798Z,11.30
2018-10-06T20:59:55.913Z,11.10
2018-10-06T21:02:23.943Z,11.80
2018-10-06T21:04:52.007Z,11.77
2018-10-06T21:07:21.215Z,12.10
2018-10-06T21:09:49.302Z,10.83
2018-10-06T21:12:17.325Z,10.83
2018-10-06T21:14:45.406Z,10.80
2018-10-06T21:17:13.425Z,11.17
2018-10-06T21:19:41.545Z,10.20
2018-10-06T21:22:09.645Z,10.13
2018-10-06T21:24:38.162Z,10.20
2018-10-06T21:27:06.189Z,11.20
2018-10-06T21:29:34.433Z,10.77
2018-10-06T21:32:02.388Z,10.90
2018-10-06T21:34:30.422Z,9.90
2018-10-06T21:36:58.590Z,11.07
2018-10-06T21:39:26.902Z,10.60
2018-10-06T21:41:55.196Z,11.77
2018-10-06T21:44:23.281Z,10.93
2018-10-06T21:46:51.334Z,10.93
2018-10-06T21:49:19.466Z,11.07
2018-10-06T21:51:47.563Z,10.50
2018-10-06T21:54:15.596Z,10.23
2018-10-06T21:56:43.650Z,10.67
2018-10-06T21:59:11.747Z,9.93
2018-10-06T22:01:39.810Z,11.10
2018-10-06T22:04:07.857Z,10.43
2018-10-06T22:06:35.953Z,10.50
2018-10-06T22:09:04.242Z,11.23
2018-10-06T22:11:32.344Z,10.83
2018-10-06T22:14:00.388Z,12.10
2018-10-06T22:16:28.448Z,10.30
2018-10-06T22:18:56.554Z,10.10
2018-10-06T22:21:24.659Z,10.20
2018-10-06T22:23:52.805Z,11.00
2018-10-06T22:26:21.141Z,10.13
2018-10-06T22:28:50.109Z,10.67
2018-10-06T22:31:18.365Z,10.27
2018-10-06T22:33:47.289Z,10.60
2018-10-06T22:36:15.461Z,10.23
2018-10-06T22:38:44.042Z,10.30
2018-10-06T22:41:12.128Z,10.17
2018-10-06T22:43:40.286Z,9.97
2018-10-06T22:46:08.360Z,10.80
2018-10-06T22:48:36.423Z,9.97
2018-10-06T22:51:05.262Z,10.70
2018-10-06T22:53:33.313Z,9.43
2018-10-06T22:56:01.469Z,10.57
2018-10-06T22:58:29.632Z,10.30
2018-10-06T23:00:57.722Z,11.00
2018-10-06T23:03:25.846Z,11.27
2018-10-06T23:05:53.923Z,11.07
2018-10-06T23:08:22.026Z,12.40
2018-10-06T23:10:50.109Z,10.87
2018-10-06T23:13:18.204Z,11.10
2018-10-06T23:15:46.258Z,10.47
2018-10-06T23:18:14.357Z,10.87
2018-10-06T23:20:42.393Z,9.50
2018-10-06T23:23:10.445Z,10.47
2018-10-06T23:25:38.549Z,10.60
2018-10-06T23:28:06.619Z,8.47
2018-10-06T23:30:34.794Z,9.20
2018-10-06T23:33:02.863Z,8.80
2018-10-06T23:35:30.977Z,8.87
2018-10-06T23:37:59.243Z,10.60
2018-10-06T23:40:27.284Z,10.00
2018-10-06T23:42:55.403Z,9.77
2018-10-06T23:45:23.450Z,9.80
2018-10-06T23:47:51.507Z,9.33
2018-10-06T23:50:19.611Z,8.43
2018-10-06T23:52:47.659Z,9.43
2018-10-06T23:55:15.810Z,9.07
2018-10-06T23:57:43.875Z,9.23
